sensor_id;sensor_type;location;lat;lon;timestamp;P1;durP1;ratioP1;P2;durP2;ratioP2
81912;SDS011;71377;50.698;7.164;2023-10-09T00:01:06;15.30;;;7.25;;
81912;SDS011;71377;50.698;7.164;2023-10-09T00:03:40;11.77;;;6.18;;
81912;SDS011;71377;50.698;7.164;2023-10-09T00:06:08;15.43;;;7.07;;
81912;SDS011;71377;50.698;7.164;2023-10-09T00:08:34;16.10;;;6.80;;
81912;SDS011;71377;50.698;7.164;2023-10-09T00:11:03;14.73;;;7.63;;
81912;SDS011;71377;50.698;7.164;2023-10-09T00:13:46;15.52;;;8.05;;
81912;SDS011;71377;50.698;7.164;2023-10-09T00:16:24;13.98;;;8.38;;
81912;SDS011;71377;50.698;7.164;2023-10-09T00:19:02;14.00;;;8.07;;
81912;SDS011;71377;50.698;7.164;2023-10-09T00:21:41;21.33;;;8.25;;
81912;SDS011;71377;50.698;7.164;2023-10-09T00:24:08;13.45;;;7.53;;
81912;SDS011;71377;50.698;7.164;2023-10-09T00:26:40;14.00;;;7.25;;
81912;SDS011;71377;50.698;7.164;2023-10-09T00:29:15;18.52;;;7.80;;
81912;SDS011;71377;50.698;7.164;2023-10-09T00:31:49;11.18;;;6.95;;
81912;SDS011;71377;50.698;7.164;2023-10-09T00:34:16;10.52;;;6.30;;
81912;SDS011;71377;50.698;7.164;2023-10-09T00:36:46;12.77;;;7.00;;
81912;SDS011;71377;50.698;7.164;2023-10-09T00:39:18;12.70;;;7.30;;
81912;SDS011;71377;50.698;7.164;2023-10-09T00:42:11;15.23;;;7.13;;
81912;SDS011;71377;50.698;7.164;2023-10-09T00:44:54;13.23;;;7.13;;
81912;SDS011;71377;50.698;7.164;2023-10-09T00:47:20;14.43;;;7.13;;
81912;SDS011;71377;50.698;7.164;2023-10-09T00:49:49;12.40;;;7.00;;
81912;SDS011;71377;50.698;7.164;2023-10-09T00:52:20;14.00;;;7.07;;
81912;SDS011;71377;50.698;7.164;2023-10-09T00:54:58;15.32;;;6.72;;
81912;SDS011;71377;50.698;7.164;2023-10-09T00:57:31;16.73;;;7.40;;
81912;SDS011;71377;50.698;7.164;2023-10-09T01:00:04;11.27;;;6.95;;
81912;SDS011;71377;50.698;7.164;2023-10-09T01:02:37;14.15;;;6.65;;
81912;SDS011;71377;50.698;7.164;2023-10-09T01:05:08;12.02;;;6.05;;
81912;SDS011;71377;50.698;7.164;2023-10-09T01:07:46;10.88;;;6.65;;
81912;SDS011;71377;50.698;7.164;2023-10-09T01:10:14;12.02;;;6.25;;
81912;SDS011;71377;50.698;7.164;2023-10-09T01:12:44;12.15;;;6.15;;
81912;SDS011;71377;50.698;7.164;2023-10-09T01:15:14;12.30;;;6.72;;
81912;SDS011;71377;50.698;7.164;2023-10-09T01:18:07;14.23;;;6.43;;
81912;SDS011;71377;50.698;7.164;2023-10-09T01:20:34;11.00;;;6.57;;
81912;SDS011;71377;50.698;7.164;2023-10-09T01:23:09;12.93;;;6.43;;
81912;SDS011;71377;50.698;7.164;2023-10-09T01:25:36;11.60;;;6.38;;
81912;SDS011;71377;50.698;7.164;2023-10-09T01:28:10;11.98;;;6.15;;
81912;SDS011;71377;50.698;7.164;2023-10-09T01:30:42;10.30;;;6.13;;
81912;SDS011;71377;50.698;7.164;2023-10-09T01:33:09;11.07;;;6.45;;
81912;SDS011;71377;50.698;7.164;2023-10-09T01:35:48;12.30;;;5.88;;
81912;SDS011;71377;50.698;7.164;2023-10-09T01:38:16;11.20;;;6.50;;
81912;SDS011;71377;50.698;7.164;2023-10-09T01:40:42;11.02;;;6.05;;
81912;SDS011;71377;50.698;7.164;2023-10-09T01:43:10;12.50;;;6.30;;
81912;SDS011;71377;50.698;7.164;2023-10-09T01:45:37;11.65;;;5.95;;
81912;SDS011;71377;50.698;7.164;2023-10-09T01:48:13;11.18;;;5.97;;
81912;SDS011;71377;50.698;7.164;2023-10-09T01:50:50;11.98;;;6.47;;
81912;SDS011;71377;50.698;7.164;2023-10-09T01:53:16;10.68;;;6.10;;
81912;SDS011;71377;50.698;7.164;2023-10-09T01:55:48;12.35;;;6.45;;
81912;SDS011;71377;50.698;7.164;2023-10-09T01:58:15;14.65;;;6.70;;
81912;SDS011;71377;50.698;7.164;2023-10-09T02:00:48;12.27;;;5.97;;
81912;SDS011;71377;50.698;7.164;2023-10-09T02:03:21;16.13;;;6.40;;
81912;SDS011;71377;50.698;7.164;2023-10-09T02:05:52;13.48;;;6.85;;
81912;SDS011;71377;50.698;7.164;2023-10-09T02:08:30;9.95;;;6.18;;
81912;SDS011;71377;50.698;7.164;2023-10-09T02:11:01;15.68;;;6.38;;
81912;SDS011;71377;50.698;7.164;2023-10-09T02:13:28;13.88;;;6.65;;
81912;SDS011;71377;50.698;7.164;2023-10-09T02:16:01;11.18;;;6.07;;
81912;SDS011;71377;50.698;7.164;2023-10-09T02:18:41;11.52;;;6.13;;
81912;SDS011;71377;50.698;7.164;2023-10-09T02:21:20;10.27;;;6.43;;
81912;SDS011;71377;50.698;7.164;2023-10-09T02:24:00;12.05;;;6.55;;
81912;SDS011;71377;50.698;7.164;2023-10-09T02:26:35;14.10;;;6.22;;
81912;SDS011;71377;50.698;7.164;2023-10-09T02:29:04;12.73;;;6.45;;
81912;SDS011;71377;50.698;7.164;2023-10-09T02:31:41;13.13;;;5.90;;
81912;SDS011;71377;50.698;7.164;2023-10-09T02:34:12;10.45;;;6.03;;
81912;SDS011;71377;50.698;7.164;2023-10-09T02:36:42;11.35;;;6.80;;
81912;SDS011;71377;50.698;7.164;2023-10-09T02:39:10;10.57;;;6.25;;
81912;SDS011;71377;50.698;7.164;2023-10-09T02:41:54;13.93;;;5.90;;
81912;SDS011;71377;50.698;7.164;2023-10-09T02:44:27;10.98;;;5.72;;
81912;SDS011;71377;50.698;7.164;2023-10-09T02:46:58;12.10;;;5.88;;
81912;SDS011;71377;50.698;7.164;2023-10-09T02:49:25;12.57;;;5.97;;
81912;SDS011;71377;50.698;7.164;2023-10-09T02:51:52;11.25;;;5.93;;
81912;SDS011;71377;50.698;7.164;2023-10-09T02:54:19;10.50;;;5.80;;
81912;SDS011;71377;50.698;7.164;2023-10-09T02:56:57;11.70;;;5.60;;
81912;SDS011;71377;50.698;7.164;2023-10-09T02:59:34;11.43;;;5.70;;
81912;SDS011;71377;50.698;7.164;2023-10-09T03:02:03;10.40;;;5.32;;
81912;SDS011;71377;50.698;7.164;2023-10-09T03:04:29;9.80;;;5.30;;
81912;SDS011;71377;50.698;7.164;2023-10-09T03:06:56;14.52;;;5.82;;
81912;SDS011;71377;50.698;7.164;2023-10-09T03:09:24;12.57;;;5.53;;
81912;SDS011;71377;50.698;7.164;2023-10-09T03:11:56;8.82;;;5.38;;
81912;SDS011;71377;50.698;7.164;2023-10-09T03:14:32;11.02;;;5.60;;
81912;SDS011;71377;50.698;7.164;2023-10-09T03:17:01;12.05;;;5.72;;
81912;SDS011;71377;50.698;7.164;2023-10-09T03:19:30;15.68;;;5.43;;
81912;SDS011;71377;50.698;7.164;2023-10-09T03:22:04;10.07;;;5.32;;
81912;SDS011;71377;50.698;7.164;2023-10-09T03:24:37;12.60;;;6.05;;
81912;SDS011;71377;50.698;7.164;2023-10-09T03:27:04;10.13;;;5.88;;
81912;SDS011;71377;50.698;7.164;2023-10-09T03:29:31;13.40;;;6.10;;
81912;SDS011;71377;50.698;7.164;2023-10-09T03:31:58;14.75;;;6.30;;
81912;SDS011;71377;50.698;7.164;2023-10-09T03:34:26;11.73;;;5.40;;
81912;SDS011;71377;50.698;7.164;2023-10-09T03:36:54;12.77;;;5.82;;
81912;SDS011;71377;50.698;7.164;2023-10-09T03:39:46;14.00;;;6.07;;
81912;SDS011;71377;50.698;7.164;2023-10-09T03:42:13;16.55;;;6.35;;
81912;SDS011;71377;50.698;7.164;2023-10-09T03:44:46;11.63;;;6.10;;
81912;SDS011;71377;50.698;7.164;2023-10-09T03:47:18;10.07;;;5.80;;
81912;SDS011;71377;50.698;7.164;2023-10-09T03:49:49;9.90;;;5.40;;
81912;SDS011;71377;50.698;7.164;2023-10-09T03:52:17;12.68;;;5.93;;
81912;SDS011;71377;50.698;7.164;2023-10-09T03:54:45;11.40;;;5.90;;
81912;SDS011;71377;50.698;7.164;2023-10-09T03:57:15;11.77;;;5.50;;
81912;SDS011;71377;50.698;7.164;2023-10-09T03:59:45;11.77;;;6.00;;
81912;SDS011;71377;50.698;7.164;2023-10-09T04:02:13;12.32;;;6.10;;
81912;SDS011;71377;50.698;7.164;2023-10-09T04:04:42;10.13;;;5.57;;
81912;SDS011;71377;50.698;7.164;2023-10-09T04:07:14;9.38;;;5.25;;
81912;SDS011;71377;50.698;7.164;2023-10-09T04:09:44;11.65;;;5.80;;
81912;SDS011;71377;50.698;7.164;2023-10-09T04:12:36;9.65;;;5.40;;
81912;SDS011;71377;50.698;7.164;2023-10-09T04:15:05;8.90;;;5.32;;
81912;SDS011;71377;50.698;7.164;2023-10-09T04:17:39;10.50;;;5.38;;
81912;SDS011;71377;50.698;7.164;2023-10-09T04:20:09;11.57;;;5.82;;
81912;SDS011;71377;50.698;7.164;2023-10-09T04:22:45;13.55;;;5.72;;
81912;SDS011;71377;50.698;7.164;2023-10-09T04:25:21;10.57;;;5.50;;
81912;SDS011;71377;50.698;7.164;2023-10-09T04:28:07;9.40;;;5.50;;
81912;SDS011;71377;50.698;7.164;2023-10-09T04:30:36;10.93;;;5.32;;
81912;SDS011;71377;50.698;7.164;2023-10-09T04:33:07;11.43;;;5.60;;
81912;SDS011;71377;50.698;7.164;2023-10-09T04:35:38;11.15;;;6.18;;
81912;SDS011;71377;50.698;7.164;2023-10-09T04:38:04;15.57;;;5.72;;
81912;SDS011;71377;50.698;7.164;2023-10-09T04:40:32;12.82;;;5.68;;
81912;SDS011;71377;50.698;7.164;2023-10-09T04:43:14;12.15;;;6.13;;
81912;SDS011;71377;50.698;7.164;2023-10-09T04:45:47;7.90;;;5.75;;
81912;SDS011;71377;50.698;7.164;2023-10-09T04:48:34;13.45;;;6.55;;
81912;SDS011;71377;50.698;7.164;2023-10-09T04:51:05;10.57;;;5.88;;
81912;SDS011;71377;50.698;7.164;2023-10-09T04:53:47;10.93;;;5.38;;
81912;SDS011;71377;50.698;7.164;2023-10-09T04:56:21;12.70;;;6.22;;
81912;SDS011;71377;50.698;7.164;2023-10-09T04:58:50;10.02;;;6.07;;
81912;SDS011;71377;50.698;7.164;2023-10-09T05:01:30;11.73;;;6.82;;
81912;SDS011;71377;50.698;7.164;2023-10-09T05:04:03;11.13;;;5.72;;
81912;SDS011;71377;50.698;7.164;2023-10-09T05:06:46;12.90;;;6.03;;
81912;SDS011;71377;50.698;7.164;2023-10-09T05:09:22;12.48;;;5.97;;
81912;SDS011;71377;50.698;7.164;2023-10-09T05:11:49;9.93;;;5.40;;
81912;SDS011;71377;50.698;7.164;2023-10-09T05:14:19;12.88;;;5.80;;
81912;SDS011;71377;50.698;7.164;2023-10-09T05:16:53;11.45;;;6.10;;
81912;SDS011;71377;50.698;7.164;2023-10-09T05:19:21;11.32;;;6.10;;
81912;SDS011;71377;50.698;7.164;2023-10-09T05:22:10;9.55;;;5.63;;
81912;SDS011;71377;50.698;7.164;2023-10-09T05:24:57;12.48;;;6.07;;
81912;SDS011;71377;50.698;7.164;2023-10-09T05:27:24;11.90;;;6.20;;
81912;SDS011;71377;50.698;7.164;2023-10-09T05:30:11;11.07;;;6.05;;
81912;SDS011;71377;50.698;7.164;2023-10-09T05:32:53;9.90;;;6.22;;
81912;SDS011;71377;50.698;7.164;2023-10-09T05:35:24;10.95;;;6.10;;
81912;SDS011;71377;50.698;7.164;2023-10-09T05:38:07;10.00;;;5.88;;
81912;SDS011;71377;50.698;7.164;2023-10-09T05:40:41;10.88;;;6.28;;
81912;SDS011;71377;50.698;7.164;2023-10-09T05:43:11;12.23;;;6.07;;
81912;SDS011;71377;50.698;7.164;2023-10-09T05:45:58;9.82;;;6.05;;
81912;SDS011;71377;50.698;7.164;2023-10-09T05:48:34;11.60;;;6.07;;
81912;SDS011;71377;50.698;7.164;2023-10-09T05:51:05;14.88;;;6.25;;
81912;SDS011;71377;50.698;7.164;2023-10-09T05:53:39;10.20;;;6.05;;
81912;SDS011;71377;50.698;7.164;2023-10-09T05:56:12;10.57;;;5.93;;
81912;SDS011;71377;50.698;7.164;2023-10-09T05:58:57;13.88;;;6.38;;
81912;SDS011;71377;50.698;7.164;2023-10-09T06:01:42;14.00;;;6.20;;
81912;SDS011;71377;50.698;7.164;2023-10-09T06:04:27;10.30;;;5.50;;
81912;SDS011;71377;50.698;7.164;2023-10-09T06:07:12;11.43;;;5.68;;
81912;SDS011;71377;50.698;7.164;2023-10-09T06:09:40;11.30;;;6.20;;
81912;SDS011;71377;50.698;7.164;2023-10-09T06:12:16;10.80;;;5.90;;
81912;SDS011;71377;50.698;7.164;2023-10-09T06:15:19;10.80;;;5.60;;
81912;SDS011;71377;50.698;7.164;2023-10-09T06:18:06;9.40;;;6.05;;
81912;SDS011;71377;50.698;7.164;2023-10-09T06:21:01;14.02;;;6.00;;
81912;SDS011;71377;50.698;7.164;2023-10-09T06:23:31;10.35;;;5.28;;
81912;SDS011;71377;50.698;7.164;2023-10-09T06:26:16;11.50;;;5.85;;
81912;SDS011;71377;50.698;7.164;2023-10-09T06:28:52;11.10;;;5.38;;
81912;SDS011;71377;50.698;7.164;2023-10-09T06:34:22;8.77;;;5.30;;
81912;SDS011;71377;50.698;7.164;2023-10-09T06:36:59;8.32;;;5.18;;
81912;SDS011;71377;50.698;7.164;2023-10-09T06:39:34;12.38;;;5.88;;
81912;SDS011;71377;50.698;7.164;2023-10-09T06:42:24;10.15;;;5.60;;
81912;SDS011;71377;50.698;7.164;2023-10-09T06:45:07;11.60;;;5.20;;
81912;SDS011;71377;50.698;7.164;2023-10-09T06:47:41;9.63;;;5.28;;
81912;SDS011;71377;50.698;7.164;2023-10-09T06:50:09;8.70;;;4.95;;
81912;SDS011;71377;50.698;7.164;2023-10-09T06:52:51;10.95;;;4.65;;
81912;SDS011;71377;50.698;7.164;2023-10-09T06:55:36;6.78;;;4.93;;
81912;SDS011;71377;50.698;7.164;2023-10-09T06:58:16;10.20;;;4.97;;
81912;SDS011;71377;50.698;7.164;2023-10-09T07:00:54;10.82;;;5.22;;
81912;SDS011;71377;50.698;7.164;2023-10-09T07:03:24;9.68;;;4.65;;
81912;SDS011;71377;50.698;7.164;2023-10-09T07:06:02;11.90;;;5.07;;
81912;SDS011;71377;50.698;7.164;2023-10-09T07:08:36;9.73;;;5.32;;
81912;SDS011;71377;50.698;7.164;2023-10-09T07:11:04;8.32;;;4.50;;
81912;SDS011;71377;50.698;7.164;2023-10-09T07:14:11;9.23;;;5.03;;
81912;SDS011;71377;50.698;7.164;2023-10-09T07:17:18;8.82;;;4.63;;
81912;SDS011;71377;50.698;7.164;2023-10-09T07:19:49;11.00;;;5.93;;
81912;SDS011;71377;50.698;7.164;2023-10-09T07:22:16;10.02;;;5.03;;
81912;SDS011;71377;50.698;7.164;2023-10-09T07:24:46;9.60;;;5.10;;
81912;SDS011;71377;50.698;7.164;2023-10-09T07:27:47;8.60;;;4.72;;
81912;SDS011;71377;50.698;7.164;2023-10-09T07:30:18;11.75;;;4.80;;
81912;SDS011;71377;50.698;7.164;2023-10-09T07:32:58;8.25;;;5.00;;
81912;SDS011;71377;50.698;7.164;2023-10-09T07:40:46;10.25;;;4.70;;
81912;SDS011;71377;50.698;7.164;2023-10-09T07:43:29;7.57;;;4.55;;
81912;SDS011;71377;50.698;7.164;2023-10-09T07:46:12;15.45;;;5.63;;
81912;SDS011;71377;50.698;7.164;2023-10-09T07:49:00;10.20;;;4.82;;
81912;SDS011;71377;50.698;7.164;2023-10-09T07:51:35;10.07;;;4.35;;
81912;SDS011;71377;50.698;7.164;2023-10-09T07:54:09;7.03;;;4.80;;
81912;SDS011;71377;50.698;7.164;2023-10-09T07:56:42;8.82;;;4.60;;
81912;SDS011;71377;50.698;7.164;2023-10-09T07:59:13;11.73;;;4.97;;
81912;SDS011;71377;50.698;7.164;2023-10-09T08:01:44;10.50;;;5.40;;
81912;SDS011;71377;50.698;7.164;2023-10-09T08:04:25;8.80;;;4.90;;
81912;SDS011;71377;50.698;7.164;2023-10-09T08:07:25;9.32;;;4.63;;
81912;SDS011;71377;50.698;7.164;2023-10-09T08:10:20;11.35;;;4.88;;
81912;SDS011;71377;50.698;7.164;2023-10-09T08:12:46;8.27;;;4.68;;
81912;SDS011;71377;50.698;7.164;2023-10-09T08:15:13;11.98;;;5.38;;
81912;SDS011;71377;50.698;7.164;2023-10-09T08:20:23;10.40;;;5.35;;
81912;SDS011;71377;50.698;7.164;2023-10-09T08:22:54;8.35;;;4.90;;
81912;SDS011;71377;50.698;7.164;2023-10-09T08:25:22;10.18;;;4.93;;
81912;SDS011;71377;50.698;7.164;2023-10-09T08:27:54;11.20;;;4.75;;
81912;SDS011;71377;50.698;7.164;2023-10-09T08:30:24;13.27;;;5.05;;
81912;SDS011;71377;50.698;7.164;2023-10-09T08:32:51;7.90;;;4.28;;
81912;SDS011;71377;50.698;7.164;2023-10-09T08:35:30;10.50;;;4.97;;
81912;SDS011;71377;50.698;7.164;2023-10-09T08:38:13;10.45;;;5.10;;
81912;SDS011;71377;50.698;7.164;2023-10-09T08:40:41;11.55;;;5.13;;
81912;SDS011;71377;50.698;7.164;2023-10-09T08:43:10;8.88;;;4.68;;
81912;SDS011;71377;50.698;7.164;2023-10-09T08:45:45;8.57;;;4.28;;
81912;SDS011;71377;50.698;7.164;2023-10-09T08:48:13;10.18;;;5.00;;
81912;SDS011;71377;50.698;7.164;2023-10-09T08:50:44;9.68;;;4.82;;
81912;SDS011;71377;50.698;7.164;2023-10-09T08:53:12;8.30;;;4.45;;
81912;SDS011;71377;50.698;7.164;2023-10-09T08:55:39;10.32;;;4.88;;
81912;SDS011;71377;50.698;7.164;2023-10-09T08:58:07;9.00;;;4.65;;
81912;SDS011;71377;50.698;7.164;2023-10-09T09:00:59;12.05;;;4.78;;
81912;SDS011;71377;50.698;7.164;2023-10-09T09:03:29;11.02;;;4.95;;
81912;SDS011;71377;50.698;7.164;2023-10-09T09:06:04;10.90;;;4.85;;
81912;SDS011;71377;50.698;7.164;2023-10-09T09:08:32;8.25;;;4.50;;
81912;SDS011;71377;50.698;7.164;2023-10-09T09:13:39;10.50;;;4.65;;
81912;SDS011;71377;50.698;7.164;2023-10-09T09:16:18;9.35;;;4.45;;
81912;SDS011;71377;50.698;7.164;2023-10-09T09:18:56;11.32;;;4.47;;
81912;SDS011;71377;50.698;7.164;2023-10-09T09:21:29;8.25;;;4.45;;
81912;SDS011;71377;50.698;7.164;2023-10-09T09:24:01;7.25;;;4.45;;
81912;SDS011;71377;50.698;7.164;2023-10-09T09:26:32;6.35;;;4.40;;
81912;SDS011;71377;50.698;7.164;2023-10-09T09:29:04;8.80;;;4.57;;
81912;SDS011;71377;50.698;7.164;2023-10-09T09:31:34;9.25;;;4.30;;
81912;SDS011;71377;50.698;7.164;2023-10-09T09:34:08;8.50;;;4.95;;
81912;SDS011;71377;50.698;7.164;2023-10-09T09:36:50;8.93;;;4.47;;
81912;SDS011;71377;50.698;7.164;2023-10-09T09:39:21;9.00;;;4.20;;
81912;SDS011;71377;50.698;7.164;2023-10-09T09:42:00;7.55;;;4.45;;
81912;SDS011;71377;50.698;7.164;2023-10-09T09:44:40;7.93;;;4.70;;
81912;SDS011;71377;50.698;7.164;2023-10-09T09:47:14;8.18;;;4.03;;
81912;SDS011;71377;50.698;7.164;2023-10-09T09:49:55;8.45;;;4.20;;
81912;SDS011;71377;50.698;7.164;2023-10-09T09:52:38;13.75;;;4.40;;
81912;SDS011;71377;50.698;7.164;2023-10-09T09:55:09;9.60;;;3.95;;
81912;SDS011;71377;50.698;7.164;2023-10-09T09:57:44;8.63;;;4.35;;
81912;SDS011;71377;50.698;7.164;2023-10-09T10:00:12;5.72;;;3.78;;
81912;SDS011;71377;50.698;7.164;2023-10-09T10:03:16;8.32;;;3.90;;
81912;SDS011;71377;50.698;7.164;2023-10-09T10:05:47;7.75;;;3.67;;
81912;SDS011;71377;50.698;7.164;2023-10-09T10:08:16;8.65;;;4.25;;
81912;SDS011;71377;50.698;7.164;2023-10-09T10:10:46;7.32;;;3.67;;
81912;SDS011;71377;50.698;7.164;2023-10-09T10:13:16;8.32;;;3.72;;
81912;SDS011;71377;50.698;7.164;2023-10-09T10:15:58;9.35;;;4.05;;
81912;SDS011;71377;50.698;7.164;2023-10-09T10:18:56;8.07;;;3.72;;
81912;SDS011;71377;50.698;7.164;2023-10-09T10:21:44;7.93;;;3.92;;
81912;SDS011;71377;50.698;7.164;2023-10-09T10:29:35;9.88;;;4.35;;
81912;SDS011;71377;50.698;7.164;2023-10-09T10:32:04;6.03;;;3.78;;
81912;SDS011;71377;50.698;7.164;2023-10-09T10:34:58;7.88;;;4.07;;
81912;SDS011;71377;50.698;7.164;2023-10-09T10:37:38;10.32;;;4.03;;
81912;SDS011;71377;50.698;7.164;2023-10-09T10:40:24;8.13;;;4.07;;
81912;SDS011;71377;50.698;7.164;2023-10-09T10:43:15;8.98;;;3.80;;
81912;SDS011;71377;50.698;7.164;2023-10-09T10:46:06;7.70;;;3.80;;
81912;SDS011;71377;50.698;7.164;2023-10-09T10:48:51;9.13;;;4.00;;
81912;SDS011;71377;50.698;7.164;2023-10-09T10:51:26;8.57;;;4.30;;
81912;SDS011;71377;50.698;7.164;2023-10-09T10:54:01;5.65;;;3.72;;
81912;SDS011;71377;50.698;7.164;2023-10-09T10:56:48;9.38;;;4.18;;
81912;SDS011;71377;50.698;7.164;2023-10-09T10:59:15;9.57;;;3.88;;
81912;SDS011;71377;50.698;7.164;2023-10-09T11:04:40;7.82;;;3.60;;
81912;SDS011;71377;50.698;7.164;2023-10-09T11:07:10;10.00;;;4.35;;
81912;SDS011;71377;50.698;7.164;2023-10-09T11:09:52;7.03;;;4.13;;
81912;SDS011;71377;50.698;7.164;2023-10-09T11:12:42;8.50;;;3.88;;
81912;SDS011;71377;50.698;7.164;2023-10-09T11:15:32;8.32;;;4.05;;
81912;SDS011;71377;50.698;7.164;2023-10-09T11:18:23;6.03;;;3.88;;
81912;SDS011;71377;50.698;7.164;2023-10-09T11:20:57;11.73;;;4.35;;
81912;SDS011;71377;50.698;7.164;2023-10-09T11:23:30;9.68;;;4.20;;
81912;SDS011;71377;50.698;7.164;2023-10-09T11:26:00;7.63;;;3.70;;
81912;SDS011;71377;50.698;7.164;2023-10-09T11:29:05;8.40;;;3.75;;
81912;SDS011;71377;50.698;7.164;2023-10-09T11:32:06;6.97;;;3.50;;
81912;SDS011;71377;50.698;7.164;2023-10-09T11:34:47;11.20;;;4.10;;
81912;SDS011;71377;50.698;7.164;2023-10-09T11:37:22;11.95;;;4.10;;
81912;SDS011;71377;50.698;7.164;2023-10-09T11:39:59;5.75;;;3.33;;
81912;SDS011;71377;50.698;7.164;2023-10-09T11:42:28;7.78;;;3.78;;
81912;SDS011;71377;50.698;7.164;2023-10-09T11:45:05;7.82;;;3.60;;
81912;SDS011;71377;50.698;7.164;2023-10-09T11:47:47;8.20;;;3.53;;
81912;SDS011;71377;50.698;7.164;2023-10-09T11:50:39;12.93;;;5.78;;
81912;SDS011;71377;50.698;7.164;2023-10-09T11:53:10;11.85;;;7.50;;
81912;SDS011;71377;50.698;7.164;2023-10-09T11:55:46;6.13;;;3.60;;
81912;SDS011;71377;50.698;7.164;2023-10-09T11:58:15;7.25;;;3.80;;
81912;SDS011;71377;50.698;7.164;2023-10-09T12:00:58;9.13;;;3.78;;
81912;SDS011;71377;50.698;7.164;2023-10-09T12:03:31;11.30;;;5.55;;
81912;SDS011;71377;50.698;7.164;2023-10-09T12:06:00;8.02;;;3.83;;
81912;SDS011;71377;50.698;7.164;2023-10-09T12:08:31;9.20;;;3.80;;
81912;SDS011;71377;50.698;7.164;2023-10-09T12:10:58;6.93;;;3.45;;
81912;SDS011;71377;50.698;7.164;2023-10-09T12:13:25;5.57;;;3.47;;
81912;SDS011;71377;50.698;7.164;2023-10-09T12:15:52;9.43;;;3.67;;
81912;SDS011;71377;50.698;7.164;2023-10-09T12:18:19;6.95;;;3.70;;
81912;SDS011;71377;50.698;7.164;2023-10-09T12:20:48;5.18;;;3.30;;
81912;SDS011;71377;50.698;7.164;2023-10-09T12:23:18;11.00;;;3.80;;
81912;SDS011;71377;50.698;7.164;2023-10-09T12:25:48;8.70;;;4.32;;
81912;SDS011;71377;50.698;7.164;2023-10-09T12:28:16;10.73;;;4.00;;
81912;SDS011;71377;50.698;7.164;2023-10-09T12:30:46;10.70;;;4.88;;
81912;SDS011;71377;50.698;7.164;2023-10-09T12:33:17;9.70;;;3.88;;
81912;SDS011;71377;50.698;7.164;2023-10-09T12:35:45;6.90;;;3.78;;
81912;SDS011;71377;50.698;7.164;2023-10-09T12:38:13;8.35;;;3.78;;
81912;SDS011;71377;50.698;7.164;2023-10-09T12:40:44;8.38;;;3.58;;
81912;SDS011;71377;50.698;7.164;2023-10-09T12:43:17;10.52;;;4.15;;
81912;SDS011;71377;50.698;7.164;2023-10-09T12:45:46;5.72;;;3.67;;
81912;SDS011;71377;50.698;7.164;2023-10-09T12:48:12;8.93;;;3.80;;
81912;SDS011;71377;50.698;7.164;2023-10-09T12:50:41;7.13;;;3.67;;
81912;SDS011;71377;50.698;7.164;2023-10-09T12:53:11;8.57;;;4.57;;
81912;SDS011;71377;50.698;7.164;2023-10-09T12:55:39;15.93;;;9.27;;
81912;SDS011;71377;50.698;7.164;2023-10-09T12:58:07;9.43;;;3.45;;
81912;SDS011;71377;50.698;7.164;2023-10-09T13:00:41;6.90;;;3.53;;
81912;SDS011;71377;50.698;7.164;2023-10-09T13:03:15;11.48;;;4.05;;
81912;SDS011;71377;50.698;7.164;2023-10-09T13:05:46;7.93;;;3.80;;
81912;SDS011;71377;50.698;7.164;2023-10-09T13:08:23;6.60;;;3.60;;
81912;SDS011;71377;50.698;7.164;2023-10-09T13:11:02;7.07;;;3.55;;
81912;SDS011;71377;50.698;7.164;2023-10-09T13:13:43;6.75;;;3.60;;
81912;SDS011;71377;50.698;7.164;2023-10-09T13:16:14;8.43;;;3.95;;
81912;SDS011;71377;50.698;7.164;2023-10-09T13:18:57;8.57;;;3.53;;
81912;SDS011;71377;50.698;7.164;2023-10-09T13:21:32;7.25;;;3.63;;
81912;SDS011;71377;50.698;7.164;2023-10-09T13:23:58;6.93;;;3.78;;
81912;SDS011;71377;50.698;7.164;2023-10-09T13:26:29;17.73;;;4.40;;
81912;SDS011;71377;50.698;7.164;2023-10-09T13:29:00;8.35;;;3.85;;
81912;SDS011;71377;50.698;7.164;2023-10-09T13:31:28;8.27;;;4.03;;
81912;SDS011;71377;50.698;7.164;2023-10-09T13:33:58;6.82;;;3.85;;
81912;SDS011;71377;50.698;7.164;2023-10-09T13:36:25;11.43;;;3.75;;
81912;SDS011;71377;50.698;7.164;2023-10-09T13:39:05;5.75;;;3.35;;
81912;SDS011;71377;50.698;7.164;2023-10-09T13:44:27;8.82;;;3.85;;
81912;SDS011;71377;50.698;7.164;2023-10-09T13:46:57;30.23;;;12.38;;
81912;SDS011;71377;50.698;7.164;2023-10-09T13:49:31;9.05;;;4.88;;
81912;SDS011;71377;50.698;7.164;2023-10-09T13:51:58;8.30;;;3.70;;
81912;SDS011;71377;50.698;7.164;2023-10-09T13:54:27;8.82;;;3.70;;
81912;SDS011;71377;50.698;7.164;2023-10-09T13:57:06;7.03;;;3.60;;
81912;SDS011;71377;50.698;7.164;2023-10-09T13:59:34;7.28;;;3.63;;
81912;SDS011;71377;50.698;7.164;2023-10-09T14:02:01;7.68;;;3.58;;
81912;SDS011;71377;50.698;7.164;2023-10-09T14:04:35;9.10;;;3.58;;
81912;SDS011;71377;50.698;7.164;2023-10-09T14:07:02;9.80;;;3.90;;
81912;SDS011;71377;50.698;7.164;2023-10-09T14:09:32;8.57;;;3.50;;
81912;SDS011;71377;50.698;7.164;2023-10-09T14:12:05;8.30;;;4.13;;
81912;SDS011;71377;50.698;7.164;2023-10-09T14:17:17;7.88;;;3.42;;
81912;SDS011;71377;50.698;7.164;2023-10-09T14:19:55;8.43;;;3.85;;
81912;SDS011;71377;50.698;7.164;2023-10-09T14:22:43;8.40;;;3.55;;
81912;SDS011;71377;50.698;7.164;2023-10-09T14:25:11;8.65;;;3.53;;
81912;SDS011;71377;50.698;7.164;2023-10-09T14:27:41;10.18;;;3.90;;
81912;SDS011;71377;50.698;7.164;2023-10-09T14:30:07;9.90;;;3.78;;
81912;SDS011;71377;50.698;7.164;2023-10-09T14:32:45;11.38;;;3.90;;
81912;SDS011;71377;50.698;7.164;2023-10-09T14:35:18;14.07;;;3.83;;
81912;SDS011;71377;50.698;7.164;2023-10-09T14:37:47;9.52;;;3.65;;
81912;SDS011;71377;50.698;7.164;2023-10-09T14:40:14;10.20;;;3.75;;
81912;SDS011;71377;50.698;7.164;2023-10-09T14:42:46;6.55;;;3.55;;
81912;SDS011;71377;50.698;7.164;2023-10-09T14:45:13;11.00;;;3.63;;
81912;SDS011;71377;50.698;7.164;2023-10-09T14:47:43;6.57;;;3.47;;
81912;SDS011;71377;50.698;7.164;2023-10-09T14:50:09;8.90;;;3.83;;
81912;SDS011;71377;50.698;7.164;2023-10-09T14:52:39;6.88;;;3.70;;
81912;SDS011;71377;50.698;7.164;2023-10-09T14:55:07;9.98;;;3.97;;
81912;SDS011;71377;50.698;7.164;2023-10-09T14:57:34;7.22;;;3.85;;
81912;SDS011;71377;50.698;7.164;2023-10-09T15:00:01;9.18;;;3.70;;
81912;SDS011;71377;50.698;7.164;2023-10-09T15:02:33;7.80;;;3.95;;
81912;SDS011;71377;50.698;7.164;2023-10-09T15:05:00;10.63;;;3.90;;
81912;SDS011;71377;50.698;7.164;2023-10-09T15:07:26;9.52;;;3.90;;
81912;SDS011;71377;50.698;7.164;2023-10-09T15:10:05;9.23;;;4.50;;
81912;SDS011;71377;50.698;7.164;2023-10-09T15:12:35;12.18;;;4.38;;
81912;SDS011;71377;50.698;7.164;2023-10-09T15:15:06;9.80;;;4.07;;
81912;SDS011;71377;50.698;7.164;2023-10-09T15:17:42;9.43;;;4.10;;
81912;SDS011;71377;50.698;7.164;2023-10-09T15:20:14;7.00;;;3.90;;
81912;SDS011;71377;50.698;7.164;2023-10-09T15:22:41;15.05;;;4.20;;
81912;SDS011;71377;50.698;7.164;2023-10-09T15:25:09;8.50;;;3.70;;
81912;SDS011;71377;50.698;7.164;2023-10-09T15:27:41;10.48;;;4.28;;
81912;SDS011;71377;50.698;7.164;2023-10-09T15:30:08;6.45;;;3.60;;
81912;SDS011;71377;50.698;7.164;2023-10-09T15:32:43;8.02;;;3.60;;
81912;SDS011;71377;50.698;7.164;2023-10-09T15:35:10;8.68;;;3.85;;
81912;SDS011;71377;50.698;7.164;2023-10-09T15:37:38;9.43;;;3.70;;
81912;SDS011;71377;50.698;7.164;2023-10-09T15:40:07;6.97;;;4.00;;
81912;SDS011;71377;50.698;7.164;2023-10-09T15:42:41;8.98;;;3.80;;
81912;SDS011;71377;50.698;7.164;2023-10-09T15:45:09;6.50;;;3.33;;
81912;SDS011;71377;50.698;7.164;2023-10-09T15:47:38;6.30;;;4.10;;
81912;SDS011;71377;50.698;7.164;2023-10-09T15:50:05;8.40;;;3.72;;